Time;durP1;ratioP1;P1;durP2;ratioP2;P2;SDS_P1;SDS_P2;PMS_P1;PMS_P2;Temp;Humidity;BMP_temperature;BMP_pressure;BME280_temperature;BME280_humidity;BME280_pressure;Samples;Min_cycle;Max_cycle;Signal;HPM_P1;HPM_P2
2023/08/16 00:01:18;;;;;;;9.60;4.90;;;;;;;24.28;64.80;99232.85;223490;181;137061;-63
2023/08/16 00:06:22;;;;;;;8.80;5.10;;;;;;;24.24;65.15;99232.42;223473;181;145542;-62
2023/08/16 00:11:26;;;;;;;6.70;4.70;;;;;;;24.24;65.33;99241.85;223548;181;138552;-64
2023/08/16 00:16:29;;;;;;;9.90;5.80;;;;;;;24.24;65.13;99241.10;223595;181;136478;-64
2023/08/16 00:21:34;;;;;;;10.40;5.00;;;;;;;24.19;65.13;99240.42;223437;181;145543;-66
2023/08/16 00:26:38;;;;;;;9.10;5.30;;;;;;;24.11;65.28;99241.73;223452;181;139653;-60
2023/08/16 00:31:42;;;;;;;9.50;5.30;;;;;;;24.04;65.14;99260.10;223452;181;137391;-64
2023/08/16 00:36:45;;;;;;;15.80;5.60;;;;;;;23.95;65.25;99265.54;223468;181;145910;-64
2023/08/16 00:41:48;;;;;;;8.50;5.20;;;;;;;23.83;65.55;99261.73;223382;182;139624;-65
2023/08/16 00:46:53;;;;;;;10.40;5.20;;;;;;;23.77;65.90;99259.95;223407;181;137382;-65
2023/08/16 00:52:01;;;;;;;12.10;5.10;;;;;;;23.68;65.89;99256.26;223345;181;147872;-67
2023/08/16 00:57:09;;;;;;;6.80;4.10;;;;;;;23.69;66.11;99256.70;223444;181;139014;-65
2023/08/16 01:02:18;;;;;;;6.90;4.90;;;;;;;23.69;66.26;99248.52;223464;182;137268;-66
2023/08/16 01:07:21;;;;;;;9.70;5.10;;;;;;;23.72;66.56;99240.23;223528;181;145671;-68
2023/08/16 01:12:40;;;;;;;7.80;5.30;;;;;;;23.71;66.51;99234.84;223377;181;139802;-64
2023/08/16 01:17:44;;;;;;;7.80;5.10;;;;;;;23.71;66.48;99226.75;223424;181;140069;-65
2023/08/16 01:27:08;;;;;;;6.60;5.00;;;;;;;23.71;66.64;99232.91;221863;194;666576;-65
2023/08/16 01:32:12;;;;;;;9.00;4.80;;;;;;;23.63;66.59;99241.04;223120;185;136370;-64
2023/08/16 01:37:16;;;;;;;6.30;4.90;;;;;;;23.59;66.88;99242.94;223117;185;144469;-64
2023/08/16 01:42:20;;;;;;;9.60;4.80;;;;;;;23.53;66.87;99248.88;223225;185;138834;-64
2023/08/16 01:47:23;;;;;;;7.30;4.60;;;;;;;23.50;66.85;99243.89;223589;182;137516;-64
2023/08/16 01:52:29;;;;;;;11.00;5.00;;;;;;;23.52;66.78;99237.98;223370;182;145674;-62
2023/08/16 01:57:32;;;;;;;8.90;5.10;;;;;;;23.54;66.82;99242.94;223401;182;138848;-63
2023/08/16 02:02:37;;;;;;;7.40;5.40;;;;;;;23.54;67.01;99242.08;223468;182;137144;-64
2023/08/16 02:07:40;;;;;;;9.00;5.30;;;;;;;23.49;67.24;99232.58;223509;182;143972;-69
2023/08/16 02:12:44;;;;;;;10.40;5.30;;;;;;;23.44;67.18;99232.45;223404;182;139484;-67
2023/08/16 02:17:48;;;;;;;7.50;4.90;;;;;;;23.47;67.03;99230.69;223385;183;137642;-67
2023/08/16 02:22:51;;;;;;;11.00;4.90;;;;;;;23.45;67.04;99224.95;223356;183;146923;-64
2023/08/16 02:27:54;;;;;;;9.30;5.00;;;;;;;23.46;67.01;99227.02;223352;183;139637;-63
2023/08/16 02:32:57;;;;;;;11.20;4.70;;;;;;;23.58;66.83;99228.10;223360;183;137361;-62
2023/08/16 02:38:01;;;;;;;11.30;5.10;;;;;;;23.70;66.36;99222.86;223294;183;147836;-66
2023/08/16 02:43:06;;;;;;;6.80;5.10;;;;;;;23.76;66.26;99218.52;223296;184;139428;-67
2023/08/16 02:48:10;;;;;;;7.90;4.90;;;;;;;23.81;66.17;99233.51;223488;183;136505;-67
2023/08/16 02:53:13;;;;;;;12.40;5.40;;;;;;;23.80;65.66;99240.51;223368;183;146827;-62
2023/08/16 02:58:16;;;;;;;8.50;5.10;;;;;;;23.70;65.56;99240.77;223294;183;139466;-66
2023/08/16 03:03:20;;;;;;;7.40;5.00;;;;;;;23.62;65.58;99240.02;223309;183;136598;-67
2023/08/16 03:08:24;;;;;;;7.40;5.30;;;;;;;23.59;65.61;99237.86;223448;179;146043;-66
2023/08/16 03:13:27;;;;;;;11.50;5.40;;;;;;;23.60;65.72;99244.54;223382;183;137642;-63
2023/08/16 03:18:30;;;;;;;8.60;4.90;;;;;;;23.66;65.66;99251.05;223351;183;137900;-62
2023/08/16 03:23:33;;;;;;;31.80;22.90;;;;;;;23.74;65.87;99255.41;223305;183;147396;-62
2023/08/16 03:28:37;;;;;;;45.30;39.90;;;;;;;23.78;66.16;99250.70;223334;183;140609;-62
2023/08/16 03:33:40;;;;;;;46.80;34.20;;;;;;;23.83;66.19;99249.67;223344;183;139515;-64
2023/08/16 03:38:43;;;;;;;40.60;35.50;;;;;;;23.74;66.32;99258.27;223143;184;149127;-63
2023/08/16 03:43:47;;;;;;;10.50;6.00;;;;;;;23.62;66.34;99258.89;223151;184;138655;-62
2023/08/16 03:48:55;;;;;;;8.40;5.60;;;;;;;23.49;66.68;99261.30;223178;184;139185;-63
2023/08/16 03:53:59;;;;;;;84.50;65.20;;;;;;;23.45;68.03;99256.82;223143;184;145917;-65
2023/08/16 03:59:02;;;;;;;36.80;27.50;;;;;;;23.43;67.65;99255.07;223183;184;140029;-61
2023/08/16 04:04:06;;;;;;;13.40;5.90;;;;;;;23.32;67.85;99267.64;223147;184;141770;-62
2023/08/16 04:09:09;;;;;;;8.30;5.30;;;;;;;23.32;67.88;99268.19;223249;184;146021;-62
2023/08/16 04:14:13;;;;;;;264.20;218.00;;;;;;;23.27;67.94;99268.02;223109;184;138796;-62
2023/08/16 04:19:16;;;;;;;15.80;9.80;;;;;;;23.21;68.17;99277.19;223238;184;137894;-60
2023/08/16 04:24:24;;;;;;;13.00;6.10;;;;;;;23.20;68.28;99277.77;223091;184;146998;-58
2023/08/16 04:29:28;;;;;;;9.20;5.20;;;;;;;23.17;68.37;99283.11;223155;184;138553;-59
2023/08/16 04:34:31;;;;;;;10.90;5.90;;;;;;;23.17;68.22;99283.89;223061;184;137712;-60
2023/08/16 04:39:35;;;;;;;8.20;5.60;;;;;;;23.23;68.33;99284.66;223215;184;146287;-60
2023/08/16 04:44:38;;;;;;;10.50;6.00;;;;;;;23.28;68.47;99286.40;223360;182;139627;-60
2023/08/16 04:49:41;;;;;;;10.80;6.10;;;;;;;23.36;68.14;99284.78;223406;183;136457;-60
2023/08/16 04:54:45;;;;;;;12.20;6.60;;;;;;;23.45;67.96;99298.67;223201;182;145785;-64
2023/08/16 04:59:50;;;;;;;8.30;6.70;;;;;;;23.52;68.20;99307.70;223350;183;139785;-64
2023/08/16 05:04:54;;;;;;;9.20;6.40;;;;;;;23.56;68.16;99302.11;223375;183;137648;-63
2023/08/16 05:09:58;;;;;;;10.70;7.30;;;;;;;23.57;68.20;99298.89;223330;183;146968;-64
2023/08/16 05:15:02;;;;;;;30.00;20.40;;;;;;;23.57;68.16;99302.11;223124;184;140353;-63
2023/08/16 05:20:07;;;;;;;10.00;6.80;;;;;;;23.61;68.21;99296.48;223186;184;138231;-64
2023/08/16 05:25:11;;;;;;;12.50;7.50;;;;;;;23.69;68.31;99296.27;223300;184;147186;-62
2023/08/16 05:30:14;;;;;;;23.00;11.10;;;;;;;23.76;68.13;99294.92;223194;184;138731;-62
2023/08/16 05:35:17;;;;;;;12.00;7.30;;;;;;;23.91;68.14;99288.61;223173;184;137224;-63
2023/08/16 05:40:21;;;;;;;7.90;6.90;;;;;;;24.00;67.65;99290.42;223258;184;147327;-64
2023/08/16 05:45:28;;;;;;;9.30;6.90;;;;;;;24.04;67.57;99292.48;223203;184;139573;-62
2023/08/16 05:50:31;;;;;;;18.70;12.50;;;;;;;24.12;67.62;99289.63;223124;184;137730;-63
2023/08/16 05:55:34;;;;;;;13.20;6.90;;;;;;;24.14;67.56;99287.02;223081;184;145754;-63
2023/08/16 06:00:38;;;;;;;10.90;7.40;;;;;;;24.26;67.50;99296.55;223018;180;139007;-63
2023/08/16 06:05:41;;;;;;;13.30;8.00;;;;;;;24.44;67.07;99295.27;223242;180;138529;-62
2023/08/16 06:10:45;;;;;;;14.30;7.40;;;;;;;24.56;66.64;99292.14;223213;184;147034;-62
2023/08/16 06:15:48;;;;;;;16.90;7.50;;;;;;;24.74;66.15;99291.73;223145;184;139681;-62
2023/08/16 06:20:51;;;;;;;21.70;7.90;;;;;;;24.86;65.79;99288.35;223189;184;137326;-63
2023/08/16 06:25:54;;;;;;;11.60;6.90;;;;;;;24.96;65.28;99280.29;223258;183;145601;-65
2023/08/16 06:30:57;;;;;;;14.00;8.40;;;;;;;25.01;64.88;99276.11;223341;183;138954;-63
2023/08/16 06:36:02;;;;;;;14.50;10.40;;;;;;;25.08;64.89;99272.51;223430;179;137404;-64
2023/08/16 06:41:05;;;;;;;14.60;8.10;;;;;;;25.16;64.50;99267.90;223264;183;146014;-64
2023/08/16 06:46:09;;;;;;;28.00;17.50;;;;;;;25.21;64.28;99262.73;223218;182;138963;-64
2023/08/16 06:51:13;;;;;;;90.90;66.50;;;;;;;25.33;64.03;99264.45;223324;183;139574;-64
2023/08/16 06:56:16;;;;;;;42.20;30.50;;;;;;;25.48;63.83;99276.09;223384;182;145546;-63
2023/08/16 07:01:19;;;;;;;15.20;8.30;;;;;;;25.67;63.35;99283.71;223261;183;139246;-63
2023/08/16 07:06:22;;;;;;;19.20;9.00;;;;;;;25.79;62.40;99289.55;223298;183;138609;-63
2023/08/16 07:11:27;;;;;;;14.10;7.80;;;;;;;25.95;61.63;99287.09;223361;183;145814;-64
2023/08/16 07:16:46;;;;;;;27.20;22.00;;;;;;;26.12;61.15;99282.10;223210;183;140406;-64
2023/08/16 07:21:49;;;;;;;17.20;11.50;;;;;;;26.20;60.64;99285.44;223245;183;137857;-65
2023/08/16 07:26:52;;;;;;;14.80;9.10;;;;;;;26.25;59.90;99290.67;223318;183;145892;-67
2023/08/16 07:31:56;;;;;;;13.10;7.70;;;;;;;26.28;59.22;99293.17;223266;183;138663;-65
2023/08/16 07:36:59;;;;;;;11.40;7.10;;;;;;;26.37;58.74;99296.59;223382;183;137168;-65
2023/08/16 07:42:02;;;;;;;10.80;7.30;;;;;;;26.47;58.72;99295.59;223415;183;146654;-66
2023/08/16 07:47:06;;;;;;;13.90;7.00;;;;;;;26.59;58.64;99299.14;223363;183;140727;-64
2023/08/16 07:52:09;;;;;;;10.70;6.90;;;;;;;26.68;57.92;99295.17;223416;182;138115;-66
2023/08/16 07:57:12;;;;;;;10.90;6.50;;;;;;;26.78;57.18;99295.53;223388;183;145997;-64
2023/08/16 08:02:16;;;;;;;17.40;7.20;;;;;;;26.87;56.61;99300.17;223410;183;138988;-65
2023/08/16 08:07:19;;;;;;;11.70;7.00;;;;;;;26.96;56.32;99306.70;223483;182;138457;-64
2023/08/16 08:12:22;;;;;;;9.70;6.70;;;;;;;27.10;55.98;99320.09;223341;184;147439;-65
2023/08/16 08:17:27;;;;;;;11.40;7.40;;;;;;;27.23;56.59;99330.09;223382;183;138683;-65
2023/08/16 08:22:30;;;;;;;8.20;6.40;;;;;;;27.36;56.12;99321.29;223500;183;137997;-65
2023/08/16 08:27:34;;;;;;;6.70;5.70;;;;;;;27.43;54.97;99310.79;223397;183;146383;-65
2023/08/16 08:32:37;;;;;;;8.30;5.90;;;;;;;27.53;54.98;99303.56;223342;183;138992;-65
2023/08/16 08:37:41;;;;;;;6.70;5.90;;;;;;;27.63;53.76;99306.56;223362;183;139526;-65
2023/08/16 08:42:49;;;;;;;12.40;6.80;;;;;;;27.72;53.47;99311.73;223410;183;145869;-64
2023/08/16 08:47:56;;;;;;;8.70;5.90;;;;;;;27.83;53.62;99314.54;223264;183;139660;-63
2023/08/16 08:53:00;;;;;;;16.20;8.20;;;;;;;27.95;53.85;99308.42;223316;183;137570;-65
2023/08/16 08:58:04;;;;;;;8.90;5.90;;;;;;;28.09;53.63;99314.98;223206;183;147261;-65
2023/08/16 09:03:09;;;;;;;14.70;6.70;;;;;;;28.25;53.06;99309.73;223342;183;140284;-62
2023/08/16 09:08:14;;;;;;;9.20;6.80;;;;;;;28.41;52.62;99312.73;223432;183;136997;-62
2023/08/16 09:13:19;;;;;;;9.60;6.50;;;;;;;28.52;52.59;99306.35;223420;183;146394;-61
2023/08/16 09:18:22;;;;;;;22.20;14.90;;;;;;;28.55;51.40;99302.70;223254;183;138970;-63
2023/08/16 09:23:27;;;;;;;12.50;7.70;;;;;;;28.59;51.46;99290.36;223421;183;139516;-62
2023/08/16 09:28:30;;;;;;;11.60;7.20;;;;;;;28.69;51.41;99281.42;223367;183;147501;-62
2023/08/16 09:33:35;;;;;;;14.20;6.50;;;;;;;28.75;51.29;99297.58;223435;183;139460;-63
2023/08/16 09:38:41;;;;;;;9.00;6.30;;;;;;;28.79;50.96;99304.76;223322;183;137001;-63
2023/08/16 09:43:44;;;;;;;11.40;8.30;;;;;;;28.88;51.01;99299.89;223413;183;147023;-64
2023/08/16 09:48:48;;;;;;;15.10;7.70;;;;;;;29.01;52.25;99306.02;223283;183;138668;-63
2023/08/16 09:53:54;;;;;;;11.00;6.80;;;;;;;29.17;50.99;99304.66;223400;183;137535;-63
2023/08/16 09:59:00;;;;;;;10.00;7.70;;;;;;;29.28;50.65;99304.04;223440;183;148719;-63
2023/08/16 10:04:04;;;;;;;13.20;6.80;;;;;;;29.35;50.56;99292.05;223401;183;138681;-63
2023/08/16 10:09:29;;;;;;;11.60;6.70;;;;;;;29.51;50.83;99279.95;223429;183;137461;-63
2023/08/16 10:14:33;;;;;;;11.30;6.50;;;;;;;29.71;50.40;99284.83;223189;183;147221;-63
2023/08/16 10:19:42;;;;;;;18.40;6.70;;;;;;;29.78;49.51;99285.23;223271;183;140789;-62
2023/08/16 10:24:50;;;;;;;11.40;7.20;;;;;;;29.70;48.81;99275.91;223317;184;137845;-63
2023/08/16 10:30:01;;;;;;;12.30;6.90;;;;;;;29.67;49.88;99278.48;223329;183;148740;-62
2023/08/16 10:35:09;;;;;;;8.10;6.70;;;;;;;29.68;49.99;99287.39;223298;183;138719;-62
2023/08/16 10:40:17;;;;;;;9.20;7.30;;;;;;;29.67;50.56;99293.09;223274;183;139342;-63
2023/08/16 10:45:33;;;;;;;8.80;6.70;;;;;;;29.72;51.81;99289.03;223383;183;148091;-61
2023/08/16 10:50:40;;;;;;;12.10;6.80;;;;;;;29.76;52.15;99287.55;223250;183;141430;-64
2023/08/16 10:55:51;;;;;;;12.30;6.70;;;;;;;29.77;51.02;99285.99;223315;183;137146;-63
2023/08/16 11:00:57;;;;;;;13.80;7.40;;;;;;;29.72;51.46;99284.10;223317;183;148081;-64
2023/08/16 11:06:06;;;;;;;13.40;7.40;;;;;;;29.63;51.23;99283.84;223189;183;138666;-64
2023/08/16 11:11:13;;;;;;;10.60;7.20;;;;;;;29.58;51.48;99278.31;223303;183;137694;-64
2023/08/16 11:16:17;;;;;;;12.10;6.50;;;;;;;29.53;52.28;99279.36;223357;183;148397;-63
2023/08/16 11:21:20;;;;;;;13.40;7.00;;;;;;;29.49;52.03;99279.23;223374;183;138853;-64
2023/08/16 11:26:23;;;;;;;10.50;6.50;;;;;;;29.48;52.27;99280.55;223316;182;137615;-62
2023/08/16 11:31:34;;;;;;;11.80;6.80;;;;;;;29.58;51.70;99282.31;223381;183;149226;-66
2023/08/16 11:36:45;;;;;;;10.30;7.10;;;;;;;29.81;51.12;99278.60;223279;183;138570;-65
2023/08/16 11:41:48;;;;;;;10.60;7.00;;;;;;;30.06;50.71;99275.96;223453;182;137560;-67
2023/08/16 11:46:51;;;;;;;15.70;7.50;;;;;;;30.16;49.46;99274.66;223343;182;148644;-65
2023/08/16 11:51:55;;;;;;;13.00;6.80;;;;;;;30.26;49.53;99272.77;223365;183;138677;-66
2023/08/16 11:56:59;;;;;;;10.90;6.70;;;;;;;30.42;49.36;99274.04;223271;183;139394;-65
2023/08/16 12:02:06;;;;;;;16.20;7.40;;;;;;;30.51;49.41;99268.17;223408;183;147823;-65
2023/08/16 12:07:10;;;;;;;13.70;8.40;;;;;;;30.48;49.88;99266.84;223294;182;141562;-66
2023/08/16 12:12:14;;;;;;;;;;;;;;;30.43;49.29;99268.96;223377;183;137959;-65
2023/08/16 12:17:17;;;;;;;14.90;8.80;;;;;;;30.41;49.21;99268.39;223480;183;149399;-67
2023/08/16 12:22:21;;;;;;;19.70;8.20;;;;;;;30.55;49.95;99266.05;223404;184;138751;-64
2023/08/16 12:27:26;;;;;;;10.60;7.70;;;;;;;30.86;48.63;99259.54;223394;184;137562;-67
2023/08/16 12:32:29;;;;;;;20.80;8.80;;;;;;;31.17;48.54;99257.46;223367;183;147651;-65
2023/08/16 12:37:33;;;;;;;17.60;8.80;;;;;;;31.24;47.50;99259.81;223349;183;138880;-67
2023/08/16 12:42:46;;;;;;;19.00;9.90;;;;;;;31.49;47.66;99263.45;223446;183;138544;-68
2023/08/16 12:47:50;;;;;;;13.70;8.20;;;;;;;31.53;46.47;99267.55;223358;183;148692;-63
2023/08/16 12:52:53;;;;;;;12.00;7.90;;;;;;;31.39;45.62;99268.58;223371;183;139973;-63
2023/08/16 12:57:58;;;;;;;18.10;9.20;;;;;;;31.25;46.04;99279.41;223300;183;138120;-68
2023/08/16 13:03:05;;;;;;;18.70;8.60;;;;;;;31.16;46.11;99282.41;223296;183;147742;-63
2023/08/16 13:08:16;;;;;;;10.90;7.30;;;;;;;31.07;45.58;99277.89;223338;183;139026;-65
2023/08/16 13:13:29;;;;;;;13.90;6.80;;;;;;;31.01;44.77;99275.22;223399;183;138781;-67
2023/08/16 13:18:35;;;;;;;8.70;7.10;;;;;;;31.05;45.45;99268.73;223319;183;147662;-65
2023/08/16 13:23:52;;;;;;;28.10;22.40;;;;;;;30.98;45.59;99270.89;223287;183;139727;-66
2023/08/16 13:29:15;;;;;;;11.70;7.60;;;;;;;30.87;45.49;99267.50;223245;183;137327;-65
2023/08/16 13:34:26;;;;;;;11.60;7.20;;;;;;;30.86;45.28;99259.94;223262;179;147504;-66
2023/08/16 13:39:32;;;;;;;13.00;7.70;;;;;;;30.90;44.91;99262.86;223202;183;139586;-61
2023/08/16 13:44:44;;;;;;;11.20;6.90;;;;;;;30.82;45.11;99262.66;223369;183;139426;-63
2023/08/16 13:49:51;;;;;;;51.00;45.00;;;;;;;30.73;45.78;99258.63;223395;183;146277;-61
2023/08/16 13:54:54;;;;;;;11.50;8.00;;;;;;;30.64;46.19;99263.30;222925;183;138822;-61
2023/08/16 13:59:57;;;;;;;15.10;8.00;;;;;;;30.46;47.25;99259.52;223287;183;137955;-62
2023/08/16 14:05:01;;;;;;;16.70;8.20;;;;;;;30.31;48.05;99262.77;223186;183;147567;-63
2023/08/16 14:10:09;;;;;;;18.90;7.80;;;;;;;30.19;48.68;99263.98;223107;183;139044;-62
2023/08/16 14:15:23;;;;;;;28.50;16.30;;;;;;;30.11;48.61;99271.34;223250;183;136881;-61
2023/08/16 14:20:26;;;;;;;16.90;7.00;;;;;;;29.98;48.29;99270.79;223248;183;147868;-63
2023/08/16 14:25:32;;;;;;;41.70;33.80;;;;;;;29.90;48.32;99265.48;223178;183;139112;-63
2023/08/16 14:30:35;;;;;;;21.90;12.20;;;;;;;29.82;48.48;99269.89;223236;183;138478;-63
2023/08/16 14:35:38;;;;;;;12.70;8.10;;;;;;;29.74;48.72;99264.30;223308;183;150144;-64
2023/08/16 14:40:42;;;;;;;12.10;6.30;;;;;;;29.69;48.87;99264.71;223339;182;139942;-62
2023/08/16 14:45:46;;;;;;;13.10;8.10;;;;;;;29.69;48.87;99262.75;223332;183;138285;-61
2023/08/16 14:50:49;;;;;;;10.20;6.50;;;;;;;29.65;48.89;99256.11;223217;183;147658;-61
2023/08/16 14:55:52;;;;;;;10.50;7.00;;;;;;;29.58;49.26;99253.24;223274;182;139633;-62
2023/08/16 15:00:56;;;;;;;15.30;7.50;;;;;;;29.55;49.74;99245.31;223154;183;138043;-60
2023/08/16 15:06:04;;;;;;;70.40;60.50;;;;;;;29.52;50.05;99237.79;223234;183;149340;-65
2023/08/16 15:11:24;;;;;;;17.50;10.80;;;;;;;29.52;50.58;99227.63;223215;183;140392;-63
2023/08/16 15:16:37;;;;;;;16.50;8.60;;;;;;;29.54;50.90;99223.40;223332;183;138024;-64
2023/08/16 15:21:43;;;;;;;19.20;8.20;;;;;;;29.55;50.99;99215.64;223248;183;147857;-63
2023/08/16 15:26:50;;;;;;;14.10;7.90;;;;;;;29.50;51.05;99213.13;223233;183;140103;-64
2023/08/16 15:31:53;;;;;;;11.90;7.20;;;;;;;29.31;50.71;99208.49;223379;183;139006;-63
2023/08/16 15:36:56;;;;;;;12.90;7.30;;;;;;;29.24;50.90;99208.07;223272;183;147632;-63
2023/08/16 15:41:59;;;;;;;20.70;14.70;;;;;;;29.25;51.12;99211.63;223055;184;141106;-62
2023/08/16 15:47:05;;;;;;;13.10;7.50;;;;;;;29.22;51.45;99209.44;223047;183;139900;-62
2023/08/16 15:52:08;;;;;;;13.50;7.70;;;;;;;29.20;51.15;99203.31;223115;183;150577;-63
2023/08/16 15:57:14;;;;;;;11.90;5.80;;;;;;;29.08;50.94;99204.24;223187;183;141504;-62
2023/08/16 16:02:18;;;;;;;12.30;7.40;;;;;;;28.95;50.98;99206.99;223222;183;138757;-63
2023/08/16 16:07:21;;;;;;;9.90;6.20;;;;;;;28.82;50.85;99204.08;223209;183;148197;-64
2023/08/16 16:12:25;;;;;;;21.60;18.20;;;;;;;28.75;50.96;99198.63;223296;179;139591;-64
2023/08/16 16:17:28;;;;;;;12.70;7.60;;;;;;;28.72;51.11;99195.29;223129;183;139957;-63
2023/08/16 16:22:31;;;;;;;12.60;6.60;;;;;;;28.75;51.22;99190.11;223191;180;147466;-66
2023/08/16 17:27:08;;;;;;;12.00;7.00;;;;;;;27.99;52.49;99217.65;220696;193;666501;-63
2023/08/16 17:32:11;;;;;;;10.50;7.10;;;;;;;27.85;52.59;99221.25;222720;187;137524;-62
2023/08/16 17:37:14;;;;;;;8.70;6.60;;;;;;;27.82;52.87;99225.70;222694;187;144082;-62
2023/08/16 17:42:18;;;;;;;10.20;6.10;;;;;;;27.74;52.98;99230.37;223077;184;139815;-61
2023/08/16 17:47:25;;;;;;;42.60;25.30;;;;;;;27.71;52.93;99223.33;223193;185;137138;-63
2023/08/16 17:52:29;;;;;;;17.80;9.20;;;;;;;27.66;53.09;99220.73;223082;185;144573;-62
2023/08/16 17:57:32;;;;;;;11.80;6.70;;;;;;;27.63;53.24;99219.56;223022;184;138953;-62
2023/08/16 18:02:35;;;;;;;18.40;7.10;;;;;;;27.56;53.36;99221.25;223169;183;136542;-63
2023/08/16 18:07:38;;;;;;;226.40;198.10;;;;;;;27.57;53.37;99224.58;223030;183;144197;-62
2023/08/16 18:12:42;;;;;;;28.60;20.80;;;;;;;27.58;53.58;99227.45;223081;184;140656;-64
2023/08/16 18:17:45;;;;;;;21.20;8.10;;;;;;;27.58;54.02;99244.11;223189;184;138161;-64
2023/08/16 18:22:49;;;;;;;16.20;7.90;;;;;;;27.54;54.10;99251.23;223153;184;145544;-65
2023/08/16 18:27:52;;;;;;;11.00;6.20;;;;;;;27.50;54.16;99261.59;223035;183;140345;-62
2023/08/16 18:32:56;;;;;;;12.60;6.30;;;;;;;27.45;54.21;99269.88;223223;183;137563;-63
2023/08/16 18:38:01;;;;;;;34.60;28.80;;;;;;;27.38;54.31;99274.58;223237;183;148321;-64
2023/08/16 18:43:04;;;;;;;16.40;12.50;;;;;;;27.34;54.28;99273.48;223112;183;140152;-65
2023/08/16 18:48:07;;;;;;;7.10;6.10;;;;;;;27.27;54.31;99272.79;223274;183;137462;-61
2023/08/16 18:53:11;;;;;;;8.30;5.60;;;;;;;27.18;54.63;99272.29;223210;183;145893;-61
2023/08/16 18:58:14;;;;;;;10.10;5.40;;;;;;;27.09;54.93;99273.58;223215;180;138745;-60
2023/08/16 19:03:18;;;;;;;11.80;5.50;;;;;;;26.99;54.76;99275.95;223144;184;137840;-62
2023/08/16 19:08:21;;;;;;;12.70;6.10;;;;;;;26.98;54.68;99269.27;223322;183;145595;-61
2023/08/16 19:13:25;;;;;;;11.10;6.80;;;;;;;26.93;54.55;99273.25;223079;183;140611;-61
2023/08/16 19:18:29;;;;;;;10.80;6.30;;;;;;;26.85;54.76;99276.37;223106;184;137604;-61
2023/08/16 19:23:32;;;;;;;12.00;6.40;;;;;;;26.79;54.91;99272.99;223169;183;146273;-61
2023/08/16 19:28:36;;;;;;;11.10;6.10;;;;;;;26.74;55.05;99272.67;223330;182;138778;-62
2023/08/16 19:33:39;;;;;;;9.90;5.80;;;;;;;26.67;55.20;99274.91;223340;182;138134;-62
2023/08/16 19:38:42;;;;;;;9.10;6.10;;;;;;;26.57;55.56;99273.67;223237;183;146078;-61
2023/08/16 19:43:46;;;;;;;10.70;6.40;;;;;;;26.52;55.97;99273.27;223284;182;139501;-62
2023/08/16 19:48:49;;;;;;;11.50;6.50;;;;;;;26.47;56.02;99272.78;223351;182;137715;-62
2023/08/16 19:53:53;;;;;;;13.10;6.60;;;;;;;26.43;56.10;99267.12;223376;182;145740;-62
2023/08/16 19:58:59;;;;;;;15.80;6.30;;;;;;;26.36;56.44;99265.23;223379;181;141655;-62
2023/08/16 20:04:03;;;;;;;14.00;7.60;;;;;;;26.30;56.56;99261.64;223267;182;136627;-61
2023/08/16 20:09:06;;;;;;;15.90;8.10;;;;;;;26.27;56.78;99262.23;223338;182;147466;-61
2023/08/16 20:14:09;;;;;;;15.40;7.50;;;;;;;26.22;56.97;99266.32;223397;182;138928;-62
2023/08/16 20:19:13;;;;;;;16.30;7.60;;;;;;;26.19;57.29;99258.65;223312;182;138173;-61
2023/08/16 20:24:16;;;;;;;15.50;7.80;;;;;;;26.17;57.33;99256.44;223283;182;145504;-61
2023/08/16 20:29:20;;;;;;;17.90;7.40;;;;;;;26.17;57.45;99249.98;223313;182;138781;-61
2023/08/16 20:34:23;;;;;;;15.30;8.10;;;;;;;26.15;57.67;99239.53;223371;182;138206;-63
2023/08/16 20:39:27;;;;;;;12.90;6.60;;;;;;;26.12;57.61;99239.51;223429;182;146581;-64
2023/08/16 20:44:30;;;;;;;14.80;6.90;;;;;;;26.10;57.62;99242.45;223367;182;138812;-64
2023/08/16 20:49:33;;;;;;;10.10;6.40;;;;;;;26.07;57.66;99243.72;223431;182;138006;-63
2023/08/16 20:54:37;;;;;;;11.30;6.20;;;;;;;26.02;57.58;99248.98;223393;182;147361;-63
2023/08/16 20:59:40;;;;;;;8.80;6.10;;;;;;;25.97;57.61;99254.30;223284;182;138940;-63
2023/08/16 21:04:43;;;;;;;10.60;6.40;;;;;;;25.90;57.53;99249.87;223374;182;136666;-63
2023/08/16 21:09:47;;;;;;;10.80;6.80;;;;;;;25.85;57.77;99249.54;223285;182;146744;-63
2023/08/16 21:14:51;;;;;;;11.30;5.80;;;;;;;25.83;57.47;99248.92;223365;181;139185;-64
2023/08/16 21:26:04;;;;;;;9.70;6.00;;;;;;;25.84;57.55;99245.52;217932;195;3695344;-65
2023/08/16 21:31:08;;;;;;;11.60;6.40;;;;;;;25.80;57.51;99248.58;222523;188;144073;-65
2023/08/16 21:36:11;;;;;;;8.50;5.90;;;;;;;25.77;57.68;99248.42;222636;187;139232;-64
2023/08/16 21:41:14;;;;;;;7.80;5.70;;;;;;;25.72;57.95;99251.44;223052;184;137529;-65
2023/08/16 21:46:18;;;;;;;9.10;6.70;;;;;;;25.69;57.94;99254.61;223072;184;143954;-64
2023/08/16 21:51:22;;;;;;;10.70;6.20;;;;;;;25.65;58.10;99259.25;222976;185;139631;-64
2023/08/16 21:56:25;;;;;;;10.20;6.50;;;;;;;25.62;58.17;99259.66;223131;184;136892;-65
2023/08/16 22:01:28;;;;;;;11.60;6.40;;;;;;;25.59;58.27;99255.05;223056;185;144764;-65
2023/08/16 22:06:32;;;;;;;10.10;5.90;;;;;;;25.56;58.25;99250.30;223092;184;139913;-62
2023/08/16 22:11:36;;;;;;;11.10;6.60;;;;;;;25.52;58.56;99253.59;223003;184;136217;-62
2023/08/16 22:16:39;;;;;;;7.40;6.00;;;;;;;25.47;58.72;99251.98;223155;184;146994;-64
2023/08/16 22:26:59;;;;;;;9.90;6.10;;;;;;;25.43;58.89;99251.44;221856;192;665920;-62
2023/08/16 22:32:02;;;;;;;8.40;6.20;;;;;;;25.38;58.93;99248.55;222886;187;139145;-63
2023/08/16 22:37:06;;;;;;;6.70;5.60;;;;;;;25.38;58.71;99252.58;223105;184;144852;-63
2023/08/16 22:42:09;;;;;;;10.40;5.70;;;;;;;25.33;59.09;99254.94;223207;184;139061;-64
2023/08/16 22:47:13;;;;;;;10.70;5.70;;;;;;;25.26;59.43;99260.11;223197;183;136687;-64
2023/08/16 22:52:17;;;;;;;8.50;6.10;;;;;;;25.22;59.36;99255.64;223203;184;144755;-63
2023/08/16 22:57:20;;;;;;;8.20;6.20;;;;;;;25.21;59.77;99258.52;223310;184;139922;-67
2023/08/16 23:02:23;;;;;;;6.90;6.10;;;;;;;25.18;59.77;99249.08;223320;184;136000;-65
2023/08/16 23:07:27;;;;;;;8.60;6.20;;;;;;;25.16;59.70;99251.85;223219;183;265181;-64
2023/08/16 23:12:30;;;;;;;11.80;7.00;;;;;;;25.15;59.71;99255.48;223322;184;139072;-63
2023/08/16 23:17:33;;;;;;;8.40;5.70;;;;;;;25.15;59.78;99266.71;223242;183;139794;-64
2023/08/16 23:22:37;;;;;;;6.60;5.70;;;;;;;25.14;60.01;99271.30;223169;183;146366;-65
2023/08/16 23:27:41;;;;;;;8.10;6.10;;;;;;;25.11;60.25;99275.75;223080;184;139440;-65
2023/08/16 23:32:44;;;;;;;8.50;5.90;;;;;;;25.06;60.31;99276.38;223300;183;137075;-65
2023/08/16 23:37:48;;;;;;;9.40;6.40;;;;;;;25.02;60.71;99281.48;223242;183;146076;-65
2023/08/16 23:42:51;;;;;;;8.70;6.10;;;;;;;25.00;60.56;99284.64;223150;184;140380;-65
2023/08/16 23:47:55;;;;;;;9.60;6.10;;;;;;;24.94;61.16;99288.13;223148;184;137180;-65
2023/08/16 23:52:59;;;;;;;8.20;5.80;;;;;;;24.90;61.58;99281.14;223145;184;147398;-63
2023/08/16 23:58:07;;;;;;;9.70;6.50;;;;;;;24.97;61.26;99275.71;223144;184;140067;-64
